createdAt,value
2024-02-19T15:52:55.247Z,125.93
2024-02-19T15:56:08.608Z,133.52
2024-02-19T15:59:15.138Z,129.20
2024-02-19T16:02:20.724Z,143.48
2024-02-19T16:05:26.277Z,139.07
2024-02-19T16:08:35.077Z,138.23
2024-02-19T16:11:40.350Z,140.60
2024-02-19T16:14:45.841Z,135.48
2024-02-19T16:17:51.732Z,136.18
2024-02-19T16:20:57.760Z,140.00
2024-02-19T16:24:03.513Z,141.07
2024-02-19T16:27:09.226Z,143.65
2024-02-19T16:30:15.340Z,137.63
2024-02-19T16:33:20.582Z,148.90
2024-02-19T16:36:27.985Z,157.23
2024-02-19T16:39:33.672Z,152.43
2024-02-19T16:42:39.597Z,154.40
2024-02-19T16:46:04.330Z,157.38
2024-02-19T16:49:10.054Z,151.40
2024-02-19T16:52:17.023Z,155.38
2024-02-19T16:55:23.117Z,149.30
2024-02-19T16:58:33.352Z,145.90
2024-02-19T17:01:40.429Z,144.40
2024-02-19T17:04:48.828Z,154.50
2024-02-19T17:07:54.602Z,166.45
2024-02-19T17:11:00.399Z,160.02
2024-02-19T17:14:06.333Z,171.10
2024-02-19T17:17:13.125Z,161.63
2024-02-19T17:20:18.754Z,162.50
2024-02-19T17:23:24.676Z,167.73
2024-02-19T17:26:31.480Z,165.68
2024-02-19T17:29:37.594Z,172.57
2024-02-19T17:32:43.223Z,179.75
2024-02-19T17:35:48.998Z,174.13
2024-02-19T17:38:54.768Z,173.18
2024-02-19T17:41:59.910Z,162.95
2024-02-19T17:45:07.859Z,165.15
2024-02-19T17:48:15.887Z,174.55
2024-02-19T17:51:22.891Z,171.18
2024-02-19T17:54:30.993Z,168.23
2024-02-19T17:57:37.021Z,178.20
2024-02-19T18:00:43.697Z,170.25
2024-02-19T18:03:49.650Z,176.68
2024-02-19T18:06:57.338Z,163.05
2024-02-19T18:10:05.298Z,176.05
2024-02-19T18:13:11.526Z,161.63
2024-02-19T18:16:17.730Z,171.70
2024-02-19T18:19:23.426Z,183.13
2024-02-19T18:22:29.405Z,165.90
2024-02-19T18:25:35.513Z,176.88
2024-02-19T18:28:41.316Z,174.23
2024-02-19T18:31:51.794Z,182.70
2024-02-19T18:34:57.898Z,184.02
2024-02-19T18:38:05.714Z,182.77
2024-02-19T18:41:12.950Z,179.60
2024-02-19T18:44:18.835Z,184.45
2024-02-19T18:47:25.383Z,190.23
2024-02-19T18:50:31.066Z,187.45
2024-02-19T18:53:36.829Z,192.43
2024-02-19T18:56:43.690Z,177.25
2024-02-19T18:59:50.577Z,190.15
2024-02-19T19:02:59.744Z,187.80
2024-02-19T19:06:05.744Z,181.68
2024-02-19T19:09:12.264Z,172.15
2024-02-19T19:12:19.313Z,166.02
2024-02-19T19:15:25.031Z,179.55
2024-02-19T19:18:32.557Z,183.88
2024-02-19T19:21:38.632Z,195.20
2024-02-19T19:24:48.388Z,180.48
2024-02-19T19:27:53.915Z,194.50
2024-02-19T19:31:00.685Z,185.80
2024-02-19T19:34:05.980Z,179.82
2024-02-19T19:37:12.920Z,177.38
2024-02-19T19:40:20.251Z,187.85
2024-02-19T19:43:26.126Z,197.93
2024-02-19T19:46:32.183Z,175.02
2024-02-19T19:49:37.879Z,175.23
2024-02-19T19:52:44.662Z,176.52
2024-02-19T19:55:55.289Z,167.80
2024-02-19T19:59:01.330Z,192.15
2024-02-19T20:02:07.821Z,182.40
2024-02-19T20:05:13.708Z,183.82
2024-02-19T20:08:20.252Z,196.45
2024-02-19T20:11:25.937Z,178.75
2024-02-19T20:14:31.933Z,180.00
2024-02-19T20:17:39.140Z,199.15
2024-02-19T20:20:45.217Z,192.27
2024-02-19T20:23:51.084Z,215.52
2024-02-19T20:27:00.816Z,188.63
2024-02-19T20:30:08.223Z,198.00
2024-02-19T20:33:14.483Z,208.48
2024-02-19T20:36:22.117Z,194.07
2024-02-19T20:39:28.767Z,178.48
2024-02-19T20:42:36.147Z,198.30
2024-02-19T20:45:42.206Z,205.52
2024-02-19T20:48:48.349Z,183.65
2024-02-19T20:51:55.032Z,190.70
2024-02-19T20:55:00.727Z,188.65
2024-02-19T20:58:06.542Z,199.60
2024-02-19T21:01:12.626Z,199.75
2024-02-19T21:04:19.066Z,197.55
2024-02-19T21:07:24.838Z,194.27
2024-02-19T21:10:30.768Z,205.10
2024-02-19T21:13:37.034Z,194.85
2024-02-19T21:16:45.202Z,209.82
2024-02-19T21:19:51.683Z,198.02
2024-02-19T21:22:57.372Z,203.10
2024-02-19T21:26:03.525Z,223.48
2024-02-19T21:29:09.632Z,208.77
2024-02-19T21:32:15.335Z,214.27
2024-02-19T21:35:21.698Z,218.20
2024-02-19T21:38:29.600Z,222.73
2024-02-19T21:41:35.595Z,208.82
2024-02-19T21:44:41.047Z,204.60
2024-02-19T21:47:48.723Z,190.38
2024-02-19T21:50:54.726Z,193.93
2024-02-19T21:54:00.833Z,205.32
2024-02-19T21:57:06.634Z,208.25
2024-02-19T22:00:13.326Z,198.15
2024-02-19T22:03:19.090Z,196.90
2024-02-19T22:06:25.154Z,199.40
2024-02-19T22:09:31.218Z,189.32
2024-02-19T22:12:36.859Z,189.20
2024-02-19T22:15:43.212Z,203.82
2024-02-19T22:18:48.858Z,178.82
2024-02-19T22:21:56.764Z,170.13
2024-02-19T22:25:04.473Z,171.45
2024-02-19T22:28:10.152Z,168.82
2024-02-19T22:31:16.005Z,186.93
2024-02-19T22:34:21.714Z,195.70
2024-02-19T22:37:27.923Z,193.10
2024-02-19T22:40:33.933Z,197.88
2024-02-19T22:43:40.148Z,174.80
2024-02-19T22:46:45.670Z,168.40
2024-02-19T22:49:52.594Z,176.75
2024-02-19T22:52:58.190Z,171.27
2024-02-19T22:56:03.852Z,175.50
2024-02-19T22:59:18.264Z,205.02
2024-02-19T23:02:27.505Z,189.73
2024-02-19T23:05:33.969Z,189.23
2024-02-19T23:08:39.633Z,184.20
2024-02-19T23:11:45.173Z,172.52
2024-02-19T23:14:51.288Z,160.38
2024-02-19T23:17:56.836Z,168.85
2024-02-19T23:21:03.331Z,170.65
2024-02-19T23:24:09.317Z,169.82
2024-02-19T23:27:15.296Z,187.63
2024-02-19T23:30:21.523Z,184.57
2024-02-19T23:33:26.910Z,185.38
2024-02-19T23:36:34.639Z,188.32
2024-02-19T23:39:40.393Z,202.90
2024-02-19T23:42:46.700Z,190.30
2024-02-19T23:45:52.267Z,194.93
2024-02-19T23:48:58.554Z,198.88
2024-02-19T23:52:04.592Z,201.85
2024-02-19T23:55:10.762Z,189.07
2024-02-19T23:58:16.340Z,182.50
